createdAt,value
2022-09-22T00:00:57.137Z,100.00
2022-09-22T00:01:59.035Z,100.00
2022-09-22T00:03:00.784Z,100.00
2022-09-22T00:04:05.851Z,100.00
2022-09-22T00:05:10.200Z,100.00
2022-09-22T00:06:15.329Z,100.00
2022-09-22T00:07:21.384Z,100.00
2022-09-22T00:08:23.096Z,100.00
2022-09-22T00:09:24.695Z,100.00
2022-09-22T00:10:26.378Z,100.00
2022-09-22T00:11:32.577Z,100.00
2022-09-22T00:12:35.532Z,100.00
2022-09-22T00:13:37.158Z,100.00
2022-09-22T00:14:42.187Z,100.00
2022-09-22T00:15:46.781Z,100.00
2022-09-22T00:16:53.991Z,100.00
2022-09-22T00:18:01.079Z,100.00
2022-09-22T00:19:06.541Z,100.00
2022-09-22T00:20:08.668Z,100.00
2022-09-22T00:21:13.631Z,100.00
2022-09-22T00:22:18.583Z,100.00
2022-09-22T00:23:20.532Z,100.00
2022-09-22T00:24:23.629Z,100.00
2022-09-22T00:25:25.208Z,100.00
2022-09-22T00:26:26.798Z,100.00
2022-09-22T00:27:28.487Z,100.00
2022-09-22T00:28:34.308Z,100.00
2022-09-22T00:29:38.060Z,100.00
2022-09-22T00:30:45.054Z,100.00
2022-09-22T00:31:50.248Z,100.00
2022-09-22T00:32:52.054Z,100.00
2022-09-22T00:33:54.949Z,100.00
2022-09-22T00:34:58.141Z,100.00
2022-09-22T00:36:01.000Z,100.00
2022-09-22T00:37:05.125Z,100.00
2022-09-22T00:38:09.758Z,100.00
2022-09-22T00:39:13.801Z,100.00
2022-09-22T00:40:17.764Z,100.00
2022-09-22T00:41:23.866Z,100.00
2022-09-22T00:42:28.618Z,100.00
2022-09-22T00:43:36.881Z,100.00
2022-09-22T00:44:43.564Z,100.00
2022-09-22T00:45:50.131Z,100.00
2022-09-22T00:47:11.959Z,100.00
2022-09-22T00:48:16.454Z,100.00
2022-09-22T00:49:22.922Z,100.00
2022-09-22T00:50:25.261Z,100.00
2022-09-22T00:51:32.464Z,100.00
2022-09-22T00:52:49.022Z,100.00
2022-09-22T00:53:52.341Z,100.00
2022-09-22T00:54:58.590Z,100.00
2022-09-22T00:56:12.257Z,100.00
2022-09-22T00:57:22.607Z,100.00
2022-09-22T00:58:37.666Z,100.00
2022-09-22T00:59:41.357Z,100.00
2022-09-22T01:00:43.534Z,100.00
2022-09-22T01:01:45.549Z,100.00
2022-09-22T01:02:51.271Z,100.00
2022-09-22T01:03:54.322Z,100.00
2022-09-22T01:04:56.965Z,100.00
2022-09-22T01:06:01.996Z,100.00
2022-09-22T01:07:05.040Z,100.00
2022-09-22T01:08:08.062Z,100.00
2022-09-22T01:09:10.891Z,100.00
2022-09-22T01:10:15.203Z,100.00
2022-09-22T01:11:20.851Z,100.00
2022-09-22T01:12:24.755Z,100.00
2022-09-22T01:13:52.645Z,100.00
2022-09-22T01:15:16.052Z,100.00
2022-09-22T01:16:42.031Z,100.00
2022-09-22T01:17:43.798Z,100.00
2022-09-22T01:18:59.173Z,100.00
2022-09-22T01:20:06.151Z,100.00
2022-09-22T01:21:33.657Z,100.00
2022-09-22T01:22:50.215Z,100.00
2022-09-22T01:24:15.683Z,100.00
2022-09-22T01:25:29.239Z,100.00
2022-09-22T01:26:31.046Z,100.00
2022-09-22T01:27:46.685Z,100.00
2022-09-22T01:29:10.088Z,100.00
2022-09-22T01:30:34.165Z,100.00
2022-09-22T01:31:50.801Z,100.00
2022-09-22T01:33:01.794Z,100.00
2022-09-22T01:34:30.003Z,100.00
2022-09-22T01:35:35.583Z,100.00
2022-09-22T01:37:11.763Z,100.00
2022-09-22T01:38:27.232Z,100.00
2022-09-22T01:39:35.656Z,100.00
2022-09-22T01:40:50.501Z,100.00
2022-09-22T01:42:11.079Z,100.00
2022-09-22T01:43:21.687Z,100.00
2022-09-22T01:44:37.279Z,100.00
2022-09-22T01:45:42.123Z,100.00
2022-09-22T01:46:56.982Z,100.00
2022-09-22T01:48:06.590Z,100.00
2022-09-22T01:49:14.524Z,100.00
2022-09-22T01:50:22.202Z,100.00
2022-09-22T01:51:37.657Z,100.00
2022-09-22T01:52:44.253Z,100.00
2022-09-22T01:53:57.154Z,100.00
2022-09-22T01:55:08.513Z,100.00
2022-09-22T01:56:14.914Z,100.00
2022-09-22T01:57:45.491Z,100.00
2022-09-22T01:58:52.787Z,100.00
2022-09-22T02:00:01.576Z,100.00
2022-09-22T02:01:14.259Z,100.00
2022-09-22T02:02:24.979Z,100.00
2022-09-22T02:03:40.954Z,100.00
2022-09-22T02:04:50.863Z,100.00
2022-09-22T02:06:00.549Z,100.00
2022-09-22T02:07:07.888Z,100.00
2022-09-22T02:08:18.474Z,100.00
2022-09-22T02:09:24.067Z,100.00
2022-09-22T02:10:33.966Z,100.00
2022-09-22T02:11:35.757Z,100.00
2022-09-22T02:12:38.603Z,100.00
2022-09-22T02:13:49.047Z,100.00
2022-09-22T02:14:55.902Z,100.00
2022-09-22T02:16:00.447Z,100.00
2022-09-22T02:17:02.904Z,100.00
2022-09-22T02:18:15.583Z,100.00
2022-09-22T02:19:38.092Z,100.00
2022-09-22T02:20:43.751Z,100.00
2022-09-22T02:21:47.433Z,100.00
2022-09-22T02:22:51.702Z,100.00
2022-09-22T02:23:54.301Z,100.00
2022-09-22T02:24:58.828Z,100.00
2022-09-22T02:26:05.578Z,100.00
2022-09-22T02:27:36.511Z,100.00
2022-09-22T02:28:44.049Z,100.00
2022-09-22T02:29:52.683Z,100.00
2022-09-22T02:31:18.593Z,100.00
2022-09-22T02:32:19.416Z,100.00
2022-09-22T02:33:26.299Z,100.00
2022-09-22T02:34:28.612Z,100.00
2022-09-22T02:35:41.147Z,100.00
2022-09-22T02:37:03.577Z,100.00
2022-09-22T02:38:19.938Z,100.00
2022-09-22T02:39:36.028Z,100.00
2022-09-22T02:41:02.949Z,100.00
2022-09-22T02:42:31.457Z,100.00
2022-09-22T02:43:43.406Z,100.00
2022-09-22T02:44:51.971Z,100.00
2022-09-22T02:46:01.130Z,100.00
2022-09-22T02:47:42.279Z,100.00
2022-09-22T02:48:51.541Z,100.00
2022-09-22T02:49:55.141Z,100.00
2022-09-22T02:50:57.107Z,100.00
2022-09-22T02:51:58.785Z,100.00
2022-09-22T02:53:11.257Z,100.00
2022-09-22T02:54:15.023Z,100.00
2022-09-22T02:55:16.646Z,100.00
2022-09-22T02:56:18.253Z,100.00
2022-09-22T02:57:20.886Z,100.00
2022-09-22T02:58:25.256Z,100.00
2022-09-22T02:59:29.855Z,100.00
2022-09-22T03:00:32.988Z,100.00
2022-09-22T03:01:34.925Z,100.00
2022-09-22T03:02:37.201Z,100.00
2022-09-22T03:03:38.742Z,100.00
2022-09-22T03:04:40.472Z,100.00
2022-09-22T03:05:44.230Z,100.00
2022-09-22T03:06:45.836Z,100.00
2022-09-22T03:07:47.569Z,100.00
2022-09-22T03:08:49.238Z,100.00
2022-09-22T03:09:50.805Z,100.00
2022-09-22T03:10:54.052Z,100.00
2022-09-22T03:11:55.925Z,100.00
2022-09-22T03:13:15.431Z,100.00
2022-09-22T03:14:18.364Z,100.00
2022-09-22T03:15:23.913Z,100.00
2022-09-22T03:16:31.504Z,100.00
2022-09-22T03:17:34.207Z,100.00
2022-09-22T03:18:35.803Z,100.00
2022-09-22T03:19:37.428Z,100.00
2022-09-22T03:20:39.068Z,100.00
2022-09-22T03:21:40.781Z,100.00
2022-09-22T03:22:42.760Z,100.00
2022-09-22T03:23:44.354Z,100.00
2022-09-22T03:24:48.870Z,100.00
2022-09-22T03:25:58.484Z,100.00
2022-09-22T03:27:00.169Z,100.00
2022-09-22T03:28:02.637Z,100.00
2022-09-22T03:29:04.897Z,100.00
2022-09-22T03:30:08.344Z,100.00
2022-09-22T03:31:12.121Z,100.00
2022-09-22T03:32:13.829Z,100.00
2022-09-22T03:33:15.676Z,100.00
2022-09-22T03:34:17.498Z,100.00
2022-09-22T03:35:19.212Z,100.00
2022-09-22T03:36:24.616Z,100.00
2022-09-22T03:37:26.605Z,100.00
2022-09-22T03:38:28.474Z,100.00
2022-09-22T03:39:30.071Z,100.00
2022-09-22T03:40:31.958Z,100.00
2022-09-22T03:41:41.072Z,100.00
2022-09-22T03:42:45.665Z,100.00
2022-09-22T03:43:47.277Z,100.00
2022-09-22T03:44:49.038Z,100.00
2022-09-22T03:46:01.053Z,100.00
2022-09-22T03:47:02.735Z,100.00
2022-09-22T03:48:04.291Z,100.00
2022-09-22T03:49:05.916Z,100.00
2022-09-22T03:50:08.615Z,100.00
2022-09-22T03:51:10.401Z,100.00
2022-09-22T03:52:12.104Z,100.00
2022-09-22T03:53:13.890Z,100.00
2022-09-22T03:54:21.687Z,100.00
2022-09-22T03:55:24.624Z,100.00
2022-09-22T03:56:26.520Z,100.00
2022-09-22T03:57:28.234Z,100.00
2022-09-22T03:58:29.867Z,100.00
2022-09-22T03:59:31.774Z,100.00
2022-09-22T04:00:33.470Z,100.00
2022-09-22T04:01:38.400Z,100.00
2022-09-22T04:02:40.668Z,100.00
2022-09-22T04:03:45.005Z,100.00
2022-09-22T04:04:46.881Z,100.00
2022-09-22T04:05:52.131Z,100.00
2022-09-22T04:06:54.597Z,100.00
2022-09-22T04:07:58.923Z,100.00
2022-09-22T04:09:01.470Z,100.00
2022-09-22T04:10:03.824Z,100.00
2022-09-22T04:11:05.950Z,100.00
2022-09-22T04:12:09.862Z,100.00
2022-09-22T04:13:19.389Z,100.00
2022-09-22T04:14:23.509Z,100.00
2022-09-22T04:15:34.004Z,100.00
2022-09-22T04:16:56.874Z,100.00
2022-09-22T04:18:01.616Z,100.00
2022-09-22T04:19:05.309Z,100.00
2022-09-22T04:20:08.915Z,100.00
2022-09-22T04:21:10.911Z,100.00
2022-09-22T04:22:13.221Z,100.00
2022-09-22T04:23:17.597Z,100.00
2022-09-22T04:24:19.692Z,100.00
2022-09-22T04:25:21.416Z,100.00
2022-09-22T04:26:23.341Z,100.00
2022-09-22T04:27:25.222Z,100.00
2022-09-22T04:28:27.009Z,100.00
2022-09-22T04:29:28.620Z,100.00
2022-09-22T04:30:31.733Z,100.00
2022-09-22T04:31:33.388Z,100.00
2022-09-22T04:32:35.017Z,100.00
2022-09-22T04:33:36.999Z,100.00
2022-09-22T04:34:38.763Z,100.00
2022-09-22T04:35:40.605Z,100.00
2022-09-22T04:36:42.297Z,100.00
2022-09-22T04:37:46.398Z,100.00
2022-09-22T04:38:48.156Z,100.00
2022-09-22T04:39:50.354Z,100.00
2022-09-22T04:40:53.245Z,100.00
2022-09-22T04:42:01.155Z,100.00
2022-09-22T04:43:02.985Z,100.00
2022-09-22T04:44:05.181Z,100.00
2022-09-22T04:45:07.375Z,100.00
2022-09-22T04:46:09.058Z,100.00
2022-09-22T04:47:10.664Z,100.00
2022-09-22T04:48:12.239Z,100.00
2022-09-22T04:49:14.159Z,100.00
2022-09-22T04:50:16.885Z,100.00
2022-09-22T04:51:18.656Z,100.00
2022-09-22T04:52:20.496Z,100.00
2022-09-22T04:53:23.435Z,100.00
2022-09-22T04:54:27.346Z,100.00
2022-09-22T04:55:28.959Z,100.00
2022-09-22T04:56:35.968Z,100.00
2022-09-22T04:57:37.890Z,100.00
2022-09-22T04:58:39.713Z,100.00
2022-09-22T04:59:41.274Z,100.00
2022-09-22T05:00:43.386Z,100.00
2022-09-22T05:01:52.790Z,100.00
2022-09-22T05:02:54.837Z,100.00
2022-09-22T05:03:59.418Z,100.00
2022-09-22T05:05:02.374Z,100.00
2022-09-22T05:06:06.110Z,100.00
2022-09-22T05:07:07.908Z,100.00
2022-09-22T05:08:16.996Z,100.00
2022-09-22T05:09:19.222Z,100.00
2022-09-22T05:10:25.151Z,100.00
2022-09-22T05:11:26.754Z,100.00
2022-09-22T05:12:28.731Z,100.00
2022-09-22T05:13:31.047Z,100.00
2022-09-22T05:14:34.784Z,100.00
2022-09-22T05:15:37.510Z,100.00
2022-09-22T05:16:39.173Z,100.00
2022-09-22T05:17:48.989Z,100.00
2022-09-22T05:18:51.212Z,100.00
2022-09-22T05:19:55.805Z,100.00
2022-09-22T05:21:00.093Z,100.00
2022-09-22T05:22:01.789Z,100.00
2022-09-22T05:23:03.477Z,100.00
2022-09-22T05:24:05.541Z,100.00
2022-09-22T05:25:15.178Z,100.00
2022-09-22T05:26:16.793Z,100.00
2022-09-22T05:27:18.739Z,100.00
2022-09-22T05:28:22.868Z,100.00
2022-09-22T05:29:27.878Z,100.00
2022-09-22T05:30:29.912Z,100.00
2022-09-22T05:31:31.559Z,100.00
2022-09-22T05:32:33.389Z,100.00
2022-09-22T05:33:35.184Z,100.00
2022-09-22T05:34:36.793Z,100.00
2022-09-22T05:35:39.501Z,100.00
2022-09-22T05:36:41.176Z,100.00
2022-09-22T05:37:43.763Z,100.00
2022-09-22T05:38:46.666Z,100.00
2022-09-22T05:39:48.214Z,100.00
2022-09-22T05:40:49.882Z,100.00
2022-09-22T05:41:51.516Z,100.00
2022-09-22T05:42:54.014Z,100.00
2022-09-22T05:43:55.645Z,100.00
2022-09-22T05:44:57.830Z,100.00
2022-09-22T05:45:59.582Z,100.00
2022-09-22T05:47:01.184Z,100.00
2022-09-22T05:48:02.781Z,100.00
2022-09-22T05:49:04.535Z,100.00
2022-09-22T05:50:09.685Z,100.00
2022-09-22T05:51:11.403Z,100.00
2022-09-22T05:52:13.203Z,100.00
2022-09-22T05:53:16.774Z,100.00
2022-09-22T05:54:23.113Z,100.00
2022-09-22T05:55:25.166Z,100.00
2022-09-22T05:56:27.148Z,100.00
2022-09-22T05:57:28.844Z,100.00
2022-09-22T05:58:31.749Z,100.00
2022-09-22T05:59:33.263Z,100.00
2022-09-22T06:00:35.365Z,100.00
2022-09-22T06:01:39.153Z,100.00
2022-09-22T06:02:44.778Z,100.00
2022-09-22T06:03:46.475Z,100.00
2022-09-22T06:04:49.869Z,100.00
2022-09-22T06:05:51.724Z,100.00
2022-09-22T06:06:53.209Z,100.00
2022-09-22T06:08:05.783Z,100.00
2022-09-22T06:09:07.785Z,100.00
2022-09-22T06:10:14.739Z,100.00
2022-09-22T06:11:16.546Z,100.00
2022-09-22T06:12:19.002Z,100.00
2022-09-22T06:13:20.686Z,100.00
2022-09-22T06:14:25.226Z,100.00
2022-09-22T06:15:28.693Z,100.00
2022-09-22T06:16:31.749Z,100.00
2022-09-22T06:17:33.347Z,100.00
2022-09-22T06:18:34.957Z,100.00
2022-09-22T06:19:39.842Z,100.00
2022-09-22T06:20:42.092Z,100.00
2022-09-22T06:21:43.739Z,100.00
2022-09-22T06:22:54.874Z,100.00
2022-09-22T06:23:57.522Z,98.34
2022-09-22T06:24:59.280Z,95.29
2022-09-22T06:26:01.076Z,96.12
2022-09-22T06:27:02.677Z,93.26
2022-09-22T06:28:06.580Z,94.93
2022-09-22T06:29:08.492Z,93.29
2022-09-22T06:30:14.396Z,83.93
2022-09-22T06:31:15.975Z,81.10
2022-09-22T06:32:19.587Z,84.30
2022-09-22T06:33:23.948Z,83.64
2022-09-22T06:34:27.191Z,74.33
2022-09-22T06:35:33.794Z,73.81
2022-09-22T06:36:35.564Z,72.07
2022-09-22T06:37:38.527Z,69.36
2022-09-22T06:38:40.114Z,69.28
2022-09-22T06:39:41.968Z,72.53
2022-09-22T06:40:44.635Z,72.01
2022-09-22T06:41:47.128Z,72.62
2022-09-22T06:42:50.510Z,65.16
2022-09-22T06:43:56.096Z,64.12
2022-09-22T06:44:57.648Z,66.82
2022-09-22T06:46:00.393Z,65.18
2022-09-22T06:47:12.621Z,63.60
2022-09-22T06:48:17.472Z,62.27
2022-09-22T06:49:20.148Z,57.45
2022-09-22T06:50:21.857Z,56.82
2022-09-22T06:51:28.753Z,57.68
2022-09-22T06:52:31.044Z,54.66
2022-09-22T06:53:32.723Z,54.37
2022-09-22T06:54:34.435Z,53.92
2022-09-22T06:55:41.678Z,52.87
2022-09-22T06:56:43.377Z,52.79
2022-09-22T06:57:46.162Z,51.90
2022-09-22T06:59:08.754Z,52.76
2022-09-22T07:00:11.988Z,51.66
2022-09-22T07:01:13.568Z,50.81
2022-09-22T07:02:18.054Z,50.30
2022-09-22T07:03:22.022Z,50.37
2022-09-22T07:04:23.579Z,48.66
2022-09-22T07:05:25.320Z,48.00
2022-09-22T07:06:27.042Z,50.57
2022-09-22T07:07:32.723Z,48.90
2022-09-22T07:08:38.616Z,48.57
2022-09-22T07:09:46.757Z,48.42
2022-09-22T07:10:56.296Z,47.40
2022-09-22T07:11:59.176Z,46.78
2022-09-22T07:13:01.053Z,45.30
2022-09-22T07:14:03.226Z,43.55
2022-09-22T07:15:05.397Z,44.39
2022-09-22T07:16:11.829Z,44.80
2022-09-22T07:17:13.674Z,44.23
2022-09-22T07:18:15.934Z,44.52
2022-09-22T07:19:20.341Z,43.31
2022-09-22T07:20:24.503Z,44.42
2022-09-22T07:21:32.914Z,43.56
2022-09-22T07:22:39.262Z,43.06
2022-09-22T07:23:42.081Z,42.95
2022-09-22T07:24:43.650Z,42.03
2022-09-22T07:25:57.263Z,41.06
2022-09-22T07:27:04.336Z,40.04
2022-09-22T07:28:06.204Z,39.63
2022-09-22T07:29:13.235Z,38.16
2022-09-22T07:30:15.221Z,38.86
2022-09-22T07:31:22.963Z,39.46
2022-09-22T07:32:30.222Z,39.45
2022-09-22T07:33:41.859Z,38.45
2022-09-22T07:34:43.907Z,37.69
2022-09-22T07:35:45.598Z,37.21
2022-09-22T07:36:49.170Z,36.01
2022-09-22T07:37:57.224Z,34.50
2022-09-22T07:39:07.475Z,35.39
2022-09-22T07:40:11.994Z,36.70
2022-09-22T07:41:27.478Z,38.58
2022-09-22T07:42:29.112Z,38.33
2022-09-22T07:43:31.272Z,37.71
2022-09-22T07:44:51.652Z,37.30
2022-09-22T07:45:55.805Z,36.18
2022-09-22T07:46:58.150Z,35.04
2022-09-22T07:48:18.394Z,34.61
2022-09-22T07:49:22.112Z,33.97
2022-09-22T07:50:24.762Z,34.17
2022-09-22T07:51:27.503Z,34.18
2022-09-22T07:52:30.227Z,33.62
2022-09-22T07:53:32.967Z,33.54
2022-09-22T07:54:36.963Z,33.47
2022-09-22T07:55:38.678Z,33.03
2022-09-22T07:56:43.303Z,32.84
2022-09-22T07:57:44.944Z,31.91
2022-09-22T07:58:49.965Z,32.29
2022-09-22T07:59:54.453Z,31.87
2022-09-22T08:01:09.084Z,32.31
2022-09-22T08:02:11.547Z,32.22
2022-09-22T08:03:13.159Z,33.07
2022-09-22T08:04:18.864Z,32.78
2022-09-22T08:05:21.574Z,32.43
2022-09-22T08:06:24.043Z,33.31
2022-09-22T08:07:25.665Z,32.94
2022-09-22T08:08:27.416Z,33.65
2022-09-22T08:09:31.669Z,32.62
2022-09-22T08:10:37.881Z,32.81
2022-09-22T08:11:42.263Z,32.75
2022-09-22T08:12:46.368Z,32.95
2022-09-22T08:14:00.045Z,33.63
2022-09-22T08:15:01.649Z,32.92
2022-09-22T08:16:06.199Z,33.13
2022-09-22T08:17:12.234Z,33.28
2022-09-22T08:18:14.281Z,33.85
2022-09-22T08:19:16.016Z,32.92
2022-09-22T08:20:18.792Z,32.99
2022-09-22T08:21:23.526Z,32.88
2022-09-22T08:22:25.091Z,33.66
2022-09-22T08:23:27.332Z,33.50
2022-09-22T08:24:29.000Z,33.54
2022-09-22T08:25:33.475Z,34.21
2022-09-22T08:26:43.694Z,34.08
2022-09-22T08:27:49.213Z,32.45
2022-09-22T08:28:52.565Z,33.82
2022-09-22T08:29:55.055Z,33.03
2022-09-22T08:30:56.673Z,32.06
2022-09-22T08:31:58.303Z,32.47
2022-09-22T08:33:01.712Z,32.88
2022-09-22T08:34:06.186Z,33.10
2022-09-22T08:35:08.988Z,32.34
2022-09-22T08:36:10.708Z,32.26
2022-09-22T08:37:16.832Z,32.10
2022-09-22T08:38:19.006Z,31.62
2022-09-22T08:39:21.977Z,31.17
2022-09-22T08:40:30.794Z,31.78
2022-09-22T08:41:50.253Z,31.44
2022-09-22T08:42:54.350Z,30.57
2022-09-22T08:44:12.328Z,30.02
2022-09-22T08:45:24.831Z,30.91
2022-09-22T08:46:32.223Z,30.36
2022-09-22T08:48:02.466Z,29.26
2022-09-22T08:49:32.345Z,29.22
2022-09-22T08:51:06.003Z,28.32
2022-09-22T08:52:23.799Z,29.17
2022-09-22T08:53:32.249Z,28.94
2022-09-22T08:54:35.276Z,29.25
2022-09-22T08:55:45.394Z,29.44
2022-09-22T08:56:59.297Z,28.70
2022-09-22T08:58:09.217Z,29.61
2022-09-22T08:59:18.712Z,28.86
2022-09-22T09:00:20.809Z,29.71
2022-09-22T09:01:53.334Z,29.73
2022-09-22T09:03:43.033Z,29.36
2022-09-22T09:05:09.233Z,29.71
2022-09-22T09:06:22.850Z,28.33
2022-09-22T09:08:00.134Z,28.55
2022-09-22T09:09:30.928Z,27.58
2022-09-22T09:10:40.988Z,28.58
2022-09-22T09:11:45.505Z,28.49
2022-09-22T09:13:14.259Z,29.42
2022-09-22T09:14:25.677Z,29.39
2022-09-22T09:15:30.097Z,27.77
2022-09-22T09:17:14.443Z,29.05
2022-09-22T09:18:23.212Z,29.16
2022-09-22T09:19:40.828Z,29.28
2022-09-22T09:20:46.183Z,29.64
2022-09-22T09:21:53.215Z,28.68
2022-09-22T09:22:55.967Z,27.73
2022-09-22T09:25:39.332Z,27.87
2022-09-22T09:26:41.478Z,28.08
2022-09-22T09:27:50.241Z,27.36
2022-09-22T09:29:03.534Z,28.46
2022-09-22T09:30:17.983Z,28.52
2022-09-22T09:31:48.979Z,28.71
2022-09-22T09:32:53.925Z,28.06
2022-09-22T09:34:07.695Z,27.57
2022-09-22T09:35:15.931Z,27.67
2022-09-22T09:36:20.609Z,28.02
2022-09-22T09:37:22.375Z,27.54
2022-09-22T09:38:35.701Z,28.20
2022-09-22T09:39:40.015Z,28.06
2022-09-22T09:40:41.933Z,27.32
2022-09-22T09:41:49.193Z,26.92
2022-09-22T09:42:58.677Z,26.12
2022-09-22T09:44:01.608Z,25.96
2022-09-22T09:45:06.546Z,25.33
2022-09-22T09:46:19.755Z,26.64
2022-09-22T09:47:24.307Z,26.49
2022-09-22T09:48:43.467Z,25.95
2022-09-22T09:49:52.822Z,25.56
2022-09-22T09:51:05.347Z,26.46
2022-09-22T09:52:12.339Z,26.04
2022-09-22T09:53:30.435Z,25.28
2022-09-22T09:54:32.298Z,26.13
2022-09-22T09:55:35.300Z,25.72
2022-09-22T09:56:59.759Z,25.66
2022-09-22T09:58:05.545Z,26.82
2022-09-22T09:59:30.842Z,25.40
2022-09-22T10:00:36.156Z,27.10
2022-09-22T10:01:42.349Z,26.99
2022-09-22T10:03:05.914Z,26.15
2022-09-22T10:04:19.022Z,26.55
2022-09-22T10:05:26.639Z,26.48
2022-09-22T10:06:28.651Z,26.25
2022-09-22T10:07:41.455Z,26.21
2022-09-22T10:08:51.616Z,25.67
2022-09-22T10:10:16.384Z,25.99
2022-09-22T10:11:34.218Z,26.66
2022-09-22T10:12:36.952Z,25.94
2022-09-22T10:13:40.651Z,26.29
2022-09-22T10:14:50.379Z,25.89
2022-09-22T10:16:07.433Z,24.57
2022-09-22T10:17:20.380Z,25.50
2022-09-22T10:18:25.123Z,25.73
2022-09-22T10:19:30.052Z,25.07
2022-09-22T10:20:34.101Z,24.70
2022-09-22T10:21:37.624Z,24.74
2022-09-22T10:22:39.972Z,23.41
2022-09-22T10:23:43.429Z,24.77
2022-09-22T10:24:53.993Z,25.73
2022-09-22T10:26:30.295Z,23.45
2022-09-22T10:27:31.962Z,24.11
2022-09-22T10:28:36.417Z,24.48
2022-09-22T10:29:42.084Z,24.73
2022-09-22T10:30:45.217Z,24.42
2022-09-22T10:32:08.202Z,22.80
2022-09-22T10:33:22.152Z,22.60
2022-09-22T10:34:50.715Z,23.57
2022-09-22T10:36:12.898Z,24.07
2022-09-22T10:37:18.853Z,24.68
2022-09-22T10:38:23.026Z,24.58
2022-09-22T10:39:41.013Z,26.88
2022-09-22T10:40:50.084Z,26.79
2022-09-22T10:41:51.994Z,25.04
2022-09-22T10:42:58.364Z,25.68
2022-09-22T10:44:21.250Z,25.99
2022-09-22T10:45:55.651Z,26.43
2022-09-22T10:47:12.060Z,24.51
2022-09-22T10:48:42.390Z,24.01
2022-09-22T10:50:19.037Z,23.83
2022-09-22T10:51:34.135Z,23.99
2022-09-22T10:52:54.409Z,21.69
2022-09-22T10:54:07.847Z,23.48
2022-09-22T10:55:32.040Z,24.69
2022-09-22T10:56:38.757Z,25.37
2022-09-22T10:58:07.093Z,24.71
2022-09-22T10:59:20.802Z,23.73
2022-09-22T11:00:24.495Z,23.73
2022-09-22T11:01:35.151Z,22.26
2022-09-22T11:02:48.823Z,22.57
2022-09-22T11:04:13.556Z,22.45
2022-09-22T11:05:56.542Z,23.36
2022-09-22T11:07:37.454Z,23.44
2022-09-22T11:09:18.205Z,24.70
2022-09-22T11:11:26.077Z,26.95
2022-09-22T11:12:51.206Z,23.91
2022-09-22T11:14:25.121Z,22.16
2022-09-22T11:15:54.191Z,22.12
2022-09-22T11:17:10.480Z,20.57
2022-09-22T11:18:49.722Z,23.59
2022-09-22T11:20:25.569Z,22.17
2022-09-22T11:21:43.758Z,23.23
2022-09-22T11:23:09.880Z,21.73
2022-09-22T11:24:17.100Z,22.38
2022-09-22T11:25:40.526Z,23.65
2022-09-22T11:26:57.282Z,21.82
2022-09-22T11:28:04.613Z,24.81
2022-09-22T11:29:09.455Z,23.90
2022-09-22T11:30:44.445Z,22.59
2022-09-22T11:32:15.548Z,23.67
2022-09-22T11:33:57.151Z,23.90
2022-09-22T11:35:27.352Z,21.90
2022-09-22T11:36:51.583Z,23.54
2022-09-22T11:38:22.682Z,22.70
2022-09-22T11:39:54.425Z,23.60
2022-09-22T11:41:06.444Z,23.27
2022-09-22T11:42:25.041Z,22.81
2022-09-22T11:44:03.831Z,24.27
2022-09-22T11:45:20.556Z,23.91
2022-09-22T11:47:19.919Z,22.33
2022-09-22T11:48:42.755Z,22.73
2022-09-22T11:50:02.279Z,21.62
2022-09-22T11:51:18.292Z,23.34
2022-09-22T11:52:27.581Z,22.04
2022-09-22T11:54:00.783Z,23.66
2022-09-22T11:55:20.681Z,22.85
2022-09-22T11:56:42.260Z,21.70
2022-09-22T11:57:52.352Z,21.23
2022-09-22T11:58:58.092Z,22.17
2022-09-22T12:00:05.756Z,21.89
2022-09-22T12:01:13.489Z,21.80
2022-09-22T12:02:26.400Z,22.64
2022-09-22T12:03:37.430Z,22.92
2022-09-22T12:05:12.672Z,22.85
2022-09-22T12:06:22.520Z,22.47
2022-09-22T12:07:33.498Z,23.16
2022-09-22T12:08:43.242Z,22.85
2022-09-22T12:09:57.437Z,23.96
2022-09-22T12:10:59.941Z,22.09
2022-09-22T12:12:03.696Z,22.27
2022-09-22T12:13:13.015Z,21.90
2022-09-22T12:14:19.373Z,21.55
2022-09-22T12:15:29.570Z,21.96
2022-09-22T12:16:50.615Z,22.41
2022-09-22T12:18:18.135Z,24.91
2022-09-22T12:19:35.033Z,22.83
2022-09-22T12:20:57.151Z,22.24
2022-09-22T12:22:01.603Z,22.04
2022-09-22T12:23:35.621Z,22.47
2022-09-22T12:24:40.044Z,22.00
2022-09-22T12:25:51.568Z,22.52
2022-09-22T12:26:53.833Z,22.79
2022-09-22T12:27:58.769Z,22.74
2022-09-22T12:29:06.704Z,22.54
2022-09-22T12:30:21.484Z,22.19
2022-09-22T12:31:34.987Z,22.04
2022-09-22T12:32:42.770Z,21.82
2022-09-22T12:33:48.871Z,21.31
2022-09-22T12:34:52.006Z,21.52
2022-09-22T12:35:56.006Z,20.54
2022-09-22T12:37:09.363Z,20.98
2022-09-22T12:38:13.125Z,22.37
2022-09-22T12:39:22.634Z,23.39
2022-09-22T12:40:37.366Z,23.80
2022-09-22T12:41:59.917Z,22.46
2022-09-22T12:43:01.775Z,23.22
2022-09-22T12:44:15.876Z,21.67
2022-09-22T12:45:33.261Z,22.91
2022-09-22T12:46:35.496Z,22.78
2022-09-22T12:47:42.332Z,21.94
2022-09-22T12:48:45.893Z,22.14
2022-09-22T12:49:53.697Z,21.64
2022-09-22T12:51:14.874Z,21.21
2022-09-22T12:52:41.302Z,22.93
2022-09-22T12:53:43.959Z,22.86
2022-09-22T12:54:46.896Z,23.19
2022-09-22T12:56:04.468Z,24.10
2022-09-22T12:57:10.390Z,22.95
2022-09-22T12:58:21.065Z,22.62
2022-09-22T12:59:55.630Z,20.78
2022-09-22T13:01:26.218Z,21.94
2022-09-22T13:02:29.384Z,20.35
2022-09-22T13:03:48.667Z,20.29
2022-09-22T13:04:55.846Z,21.22
2022-09-22T13:06:03.381Z,23.44
2022-09-22T13:07:25.257Z,23.23
2022-09-22T13:08:32.876Z,22.09
2022-09-22T13:09:35.827Z,21.91
2022-09-22T13:10:41.583Z,24.55
2022-09-22T13:12:12.150Z,23.04
2022-09-22T13:13:44.175Z,23.64
2022-09-22T13:14:54.486Z,22.47
2022-09-22T13:16:01.786Z,22.33
2022-09-22T13:17:33.596Z,23.04
2022-09-22T13:18:38.476Z,22.66
2022-09-22T13:19:55.139Z,21.41
2022-09-22T13:20:58.498Z,21.16
2022-09-22T13:22:20.148Z,20.65
2022-09-22T13:23:21.833Z,21.44
2022-09-22T13:24:27.487Z,21.57
2022-09-22T13:25:31.044Z,21.63
2022-09-22T13:26:40.622Z,22.67
2022-09-22T13:27:42.554Z,22.97
2022-09-22T13:28:44.191Z,25.85
2022-09-22T13:30:15.078Z,24.39
2022-09-22T13:31:17.745Z,24.24
2022-09-22T13:32:26.658Z,23.66
2022-09-22T13:33:33.321Z,23.81
2022-09-22T13:34:36.698Z,23.40
2022-09-22T13:35:57.343Z,23.87
2022-09-22T13:37:13.692Z,23.24
2022-09-22T13:38:15.535Z,23.94
2022-09-22T13:39:21.076Z,22.95
2022-09-22T13:40:26.973Z,23.26
2022-09-22T13:41:34.363Z,21.83
2022-09-22T13:42:36.847Z,22.52
2022-09-22T13:43:42.275Z,21.61
2022-09-22T13:44:47.769Z,21.69
2022-09-22T13:45:51.466Z,22.96
2022-09-22T13:46:54.414Z,21.75
2022-09-22T13:48:08.186Z,23.88
2022-09-22T13:49:13.523Z,22.41
2022-09-22T13:50:22.438Z,22.60
2022-09-22T13:51:25.871Z,23.35
2022-09-22T13:52:34.391Z,24.32
2022-09-22T13:53:37.446Z,23.50
2022-09-22T13:54:40.475Z,23.52
2022-09-22T13:55:42.748Z,22.85
2022-09-22T13:56:46.286Z,24.20
2022-09-22T13:57:48.419Z,24.60
2022-09-22T13:58:54.391Z,24.86
2022-09-22T13:59:58.681Z,24.73
2022-09-22T14:01:16.202Z,25.51
2022-09-22T14:02:25.958Z,23.34
2022-09-22T14:03:37.029Z,24.51
2022-09-22T14:04:47.854Z,24.29
2022-09-22T14:05:54.008Z,24.33
2022-09-22T14:07:03.642Z,25.13
2022-09-22T14:08:13.013Z,24.83
2022-09-22T14:09:16.880Z,24.24
2022-09-22T14:10:23.766Z,24.86
2022-09-22T14:11:30.876Z,24.66
2022-09-22T14:12:32.475Z,24.90
2022-09-22T14:13:38.290Z,23.72
2022-09-22T14:14:40.271Z,25.22
2022-09-22T14:15:47.591Z,24.48
2022-09-22T14:16:57.175Z,24.28
2022-09-22T14:17:59.884Z,24.55
2022-09-22T14:19:04.515Z,26.01
2022-09-22T14:20:10.848Z,26.63
2022-09-22T14:21:13.080Z,25.68
2022-09-22T14:22:19.274Z,25.03
2022-09-22T14:23:28.153Z,25.57
2022-09-22T14:24:39.099Z,25.37
2022-09-22T14:25:41.249Z,25.78
2022-09-22T14:26:57.164Z,25.18
2022-09-22T14:28:02.453Z,26.56
2022-09-22T14:29:15.170Z,26.04
2022-09-22T14:30:19.155Z,26.21
2022-09-22T14:31:29.307Z,27.43